Time;durP1;ratioP1;P1;durP2;ratioP2;P2;SDS_P1;SDS_P2;PMS_P1;PMS_P2;Temp;Humidity;BMP_temperature;BMP_pressure;BME280_temperature;BME280_humidity;BME280_pressure;Samples;Min_cycle;Max_cycle;Signal;HPM_P1;HPM_P2
2021/06/24 00:02:09;;;;;;;17.20;14.47;;;;;;;19.33;71.23;100709.51;127604;1101;22414;-77
2021/06/24 00:04:42;;;;;;;16.73;14.00;;;;;;;19.34;71.47;100708.45;127600;1101;22395;-77
2021/06/24 00:07:20;;;;;;;;;;;;;;;19.27;70.93;100701.28;127735;1098;22879;-77
2021/06/24 00:09:50;;;;;;;17.45;15.20;;;;;;;19.22;71.12;100692.25;127679;1101;21267;-77
2021/06/24 00:12:34;;;;;;;15.45;13.85;;;;;;;19.23;71.31;100689.37;127615;1104;22518;-77
2021/06/24 00:15:35;;;;;;;17.20;15.25;;;;;;;19.23;71.51;100680.52;127113;1104;22824;-77
2021/06/24 00:18:09;;;;;;;16.05;14.45;;;;;;;19.24;71.16;100669.58;127064;1104;22445;-77
2021/06/24 00:20:50;;;;;;;16.98;14.50;;;;;;;19.26;71.24;100658.66;127096;1105;22435;-76
2021/06/24 00:23:29;;;;;;;16.15;14.45;;;;;;;19.26;71.23;100656.80;126980;1108;22420;-77
2021/06/24 00:26:11;;;;;;;17.20;14.73;;;;;;;19.30;71.33;100640.30;127037;1108;22416;-77
2021/06/24 00:29:04;;;;;;;18.05;13.78;;;;;;;19.28;71.39;100630.59;126868;1108;22448;-77
2021/06/24 00:31:48;;;;;;;16.43;13.33;;;;;;;19.30;71.37;100634.94;127551;1105;22460;-78
2021/06/24 00:34:59;;;;;;;;;;;;;;;;;;;;;
2021/06/24 00:37:34;;;;;;;18.35;12.63;;;;;;;19.32;71.59;100622.94;127217;1103;22436;-77
2021/06/24 00:40:20;;;;;;;;;;;;;;;;;;;;;
2021/06/24 00:43:10;;;;;;;19.53;12.05;;;;;;;19.38;71.21;100635.47;127603;1101;22454;-77
2021/06/24 00:45:50;;;;;;;17.73;11.63;;;;;;;19.41;71.01;100631.53;127604;1101;24225;-77
2021/06/24 00:48:26;;;;;;;17.78;12.38;;;;;;;19.44;71.36;100629.23;127919;1101;24521;-77
2021/06/24 00:51:01;;;;;;;17.00;11.13;;;;;;;19.45;70.87;100617.47;127980;1101;22402;-76
2021/06/24 00:53:31;;;;;;;18.80;12.90;;;;;;;19.47;71.15;100614.59;127982;1101;24188;-76
2021/06/24 00:56:06;;;;;;;16.03;12.23;;;;;;;19.48;71.03;100617.03;128043;1098;22381;-77
2021/06/24 00:58:36;;;;;;;20.55;11.93;;;;;;;19.49;70.70;100626.73;127982;1100;22404;-77
2021/06/24 01:01:06;;;;;;;13.75;11.43;;;;;;;19.51;70.70;100634.54;127963;1098;22376;-78
2021/06/24 01:03:37;;;;;;;16.33;11.70;;;;;;;19.52;70.69;100630.81;128009;1098;22381;-78
2021/06/24 01:06:09;;;;;;;16.58;12.63;;;;;;;19.54;71.12;100639.46;128023;1098;23319;-78
2021/06/24 01:08:40;;;;;;;17.80;13.20;;;;;;;19.56;70.70;100647.27;128053;1098;22392;-76
2021/06/24 01:11:15;;;;;;;17.18;12.33;;;;;;;19.56;70.57;100655.30;128000;1098;22384;-76
2021/06/24 01:13:48;;;;;;;15.30;12.33;;;;;;;19.59;70.80;100652.19;127986;1099;22934;-77
2021/06/24 01:16:19;;;;;;;12.98;10.05;;;;;;;19.63;70.65;100661.45;128022;1098;22556;-77
2021/06/24 01:18:51;;;;;;;20.73;15.20;;;;;;;19.68;70.59;100670.48;127991;1098;22368;-77
2021/06/24 01:21:21;;;;;;;;;;;;;;;19.67;70.62;100671.53;127673;1100;22375;-78
2021/06/24 01:23:58;;;;;;;17.25;14.20;;;;;;;19.66;71.09;100677.94;127630;1101;21492;-77
2021/06/24 01:26:29;;;;;;;13.87;12.47;;;;;;;19.72;70.68;100678.91;127709;1101;22409;-77
2021/06/24 01:28:59;;;;;;;17.30;13.50;;;;;;;19.76;70.84;100677.45;127655;1101;22420;-77
2021/06/24 01:31:29;;;;;;;16.55;13.50;;;;;;;19.81;70.68;100671.41;127661;1101;22396;-77
2021/06/24 01:34:00;;;;;;;17.55;13.40;;;;;;;19.84;70.36;100658.39;127659;1101;22388;-77
2021/06/24 01:36:30;;;;;;;17.15;12.70;;;;;;;19.85;70.72;100651.97;127696;1101;22416;-77
2021/06/24 01:39:07;;;;;;;15.85;13.30;;;;;;;19.86;70.34;100644.74;127666;1101;22430;-76
2021/06/24 01:41:40;;;;;;;18.05;13.93;;;;;;;19.85;70.62;100635.07;127656;1101;22484;-77
2021/06/24 01:44:29;;;;;;;17.53;13.73;;;;;;;19.82;70.72;100630.16;127729;1101;22397;-78
2021/06/24 01:47:03;;;;;;;17.78;13.80;;;;;;;19.79;70.68;100649.36;127854;1098;22402;-77
2021/06/24 01:49:34;;;;;;;16.20;13.28;;;;;;;19.80;70.51;100651.83;128086;1098;22429;-76
2021/06/24 01:52:05;;;;;;;18.00;13.83;;;;;;;19.81;70.63;100653.47;127626;1101;22763;-76
2021/06/24 01:54:35;;;;;;;17.28;13.75;;;;;;;19.82;70.90;100660.45;127668;1102;22594;-77
2021/06/24 01:57:06;;;;;;;15.00;13.40;;;;;;;19.85;71.09;100664.56;127743;1098;22468;-76
2021/06/24 01:59:36;;;;;;;13.53;12.08;;;;;;;19.88;71.05;100674.84;128039;1098;24540;-78
2021/06/24 02:02:12;;;;;;;16.58;12.20;;;;;;;19.91;71.08;100679.77;127722;1098;22401;-78
2021/06/24 02:05:06;;;;;;;14.33;11.40;;;;;;;19.94;71.26;100692.73;127956;1098;23258;-77
2021/06/24 02:07:42;;;;;;;14.03;12.60;;;;;;;19.95;70.72;100697.86;128086;1098;22401;-77
2021/06/24 02:10:39;;;;;;;12.60;11.33;;;;;;;19.96;70.63;100696.03;128102;1098;22407;-77
2021/06/24 02:13:11;;;;;;;18.28;12.78;;;;;;;19.98;70.58;100692.06;128100;1098;22393;-78
2021/06/24 02:15:42;;;;;;;14.68;11.40;;;;;;;20.02;70.61;100694.30;128061;1098;22388;-78
2021/06/24 02:18:14;;;;;;;17.13;12.68;;;;;;;20.05;70.67;100697.36;128266;1098;22385;-78
2021/06/24 02:20:47;;;;;;;17.67;12.20;;;;;;;20.08;70.59;100691.55;128127;1098;24514;-78
2021/06/24 02:23:43;;;;;;;19.20;12.75;;;;;;;20.10;70.77;100699.39;128088;1098;24183;-78
2021/06/24 02:26:23;;;;;;;18.80;14.10;;;;;;;20.14;70.59;100727.41;128092;1098;24206;-78
2021/06/24 02:29:03;;;;;;;13.88;11.93;;;;;;;20.16;70.67;100752.97;128300;1098;22376;-77
2021/06/24 02:31:34;;;;;;;18.33;13.28;;;;;;;20.18;70.59;100748.19;128064;1098;23476;-78
2021/06/24 02:34:10;;;;;;;24.65;20.52;;;;;;;20.19;70.37;100732.91;128128;1096;22847;-79
2021/06/24 02:37:01;;;;;;;23.70;19.83;;;;;;;20.20;70.14;100729.20;128099;1098;22444;-77
2021/06/24 02:40:01;;;;;;;20.08;15.30;;;;;;;20.19;69.69;100717.66;128100;1098;22385;-76
2021/06/24 02:42:34;;;;;;;21.45;17.65;;;;;;;20.17;69.92;100716.23;128113;1098;23318;-78
2021/06/24 02:45:11;;;;;;;20.50;16.13;;;;;;;20.16;70.11;100712.73;128064;1098;24514;-78
2021/06/24 02:47:42;;;;;;;19.93;14.30;;;;;;;20.12;70.21;100692.74;128143;1098;22692;-76
2021/06/24 02:50:15;;;;;;;17.13;15.43;;;;;;;20.12;70.43;100686.56;128142;1098;22375;-77
2021/06/24 02:52:46;;;;;;;;;;;;;;;20.06;69.81;100672.20;128050;1101;22491;-78
2021/06/24 02:55:16;;;;;;;16.80;14.58;;;;;;;20.02;70.48;100668.30;128033;1098;21368;-77
2021/06/24 02:57:54;;;;;;;20.35;15.88;;;;;;;20.04;69.85;100662.73;128027;1098;22398;-79
2021/06/24 03:00:43;;;;;;;22.43;15.68;;;;;;;20.03;70.37;100656.55;127692;1101;22436;-79
2021/06/24 03:03:22;;;;;;;17.35;15.00;;;;;;;20.04;70.22;100652.82;127701;1101;22398;-78
2021/06/24 03:06:11;;;;;;;19.08;15.98;;;;;;;20.06;70.29;100672.20;127778;1101;22390;-76
2021/06/24 03:08:43;;;;;;;18.63;15.00;;;;;;;20.07;70.54;100671.15;127589;1105;22462;-78
2021/06/24 03:11:19;;;;;;;20.00;15.10;;;;;;;20.08;70.18;100680.02;127405;1104;24444;-78
2021/06/24 03:13:54;;;;;;;19.78;14.93;;;;;;;20.10;70.35;100670.70;127581;1105;22417;-77
2021/06/24 03:16:43;;;;;;;18.88;15.83;;;;;;;20.11;70.28;100640.16;127579;1102;22401;-77
2021/06/24 03:19:25;;;;;;;21.40;16.25;;;;;;;20.13;70.85;100630.03;127620;1101;22405;-77
2021/06/24 03:22:12;;;;;;;21.60;16.58;;;;;;;20.14;70.81;100623.61;127607;1101;24235;-78
2021/06/24 03:24:50;;;;;;;18.65;15.80;;;;;;;20.17;70.24;100635.77;127727;1099;22388;-79
2021/06/24 03:27:22;;;;;;;18.13;16.18;;;;;;;20.16;70.77;100643.00;128083;1098;22392;-78
2021/06/24 03:30:13;;;;;;;20.25;16.63;;;;;;;20.17;70.87;100636.58;128348;1098;24190;-81
2021/06/24 03:32:50;;;;;;;23.90;19.05;;;;;;;20.20;70.50;100616.55;128312;1097;22840;-80
2021/06/24 03:35:57;;;;;;;;;;;;;;;;;;;;;
2021/06/24 03:39:15;;;;;;;;;;;;;;;;;;;;;
2021/06/24 03:42:02;;;;;;;23.23;17.15;;;;;;;20.07;71.43;100592.56;128255;1098;22398;-81
2021/06/24 03:44:50;;;;;;;;;;;;;;;;;;;;;
2021/06/24 03:47:41;;;;;;;22.97;16.90;;;;;;;19.98;72.53;100583.98;127461;1105;22520;-81
2021/06/24 03:50:18;;;;;;;19.53;16.73;;;;;;;19.96;72.77;100570.00;127852;1104;24241;-79
2021/06/24 03:53:14;;;;;;;;;;;;;;;;;;;;;
2021/06/24 03:56:03;;;;;;;22.03;19.17;;;;;;;19.81;72.70;100658.01;127419;1105;22433;-78
2021/06/24 03:59:07;;;;;;;21.55;18.68;;;;;;;19.67;73.37;100682.25;127527;1104;22414;-80
2021/06/24 04:01:56;;;;;;;25.43;17.90;;;;;;;19.50;73.27;100630.23;127910;1101;22407;-81
2021/06/24 04:04:53;;;;;;;24.05;19.45;;;;;;;19.36;73.92;100615.28;128030;1101;22941;-80
2021/06/24 04:07:41;;;;;;;24.83;18.83;;;;;;;19.23;74.50;100635.80;127987;1098;22394;-80
2021/06/24 04:10:17;;;;;;;20.05;17.93;;;;;;;19.18;74.79;100624.09;128240;1098;25985;-80
2021/06/24 04:13:05;;;;;;;22.08;18.10;;;;;;;19.10;75.00;100635.09;127973;1101;22392;-82
2021/06/24 04:16:28;;;;;;;18.90;16.98;;;;;;;18.98;75.79;100634.94;128269;1101;24545;-80
2021/06/24 04:19:10;;;;;;;21.77;18.15;;;;;;;18.95;76.11;100621.98;128075;1101;22398;-79
2021/06/24 04:22:03;;;;;;;19.18;17.38;;;;;;;18.93;76.13;100600.80;127982;1101;24247;-80
2021/06/24 04:25:33;;;;;;;22.10;17.80;;;;;;;18.89;76.85;100580.02;128041;1101;24621;-79
2021/06/24 04:28:07;;;;;;;20.13;18.23;;;;;;;18.89;76.42;100591.54;127898;1101;22389;-80
2021/06/24 04:30:49;;;;;;;;;;;;;;;18.84;76.66;100606.63;127785;1101;24317;-80
2021/06/24 04:33:42;;;;;;;20.78;17.80;;;;;;;18.76;77.27;100619.23;128327;1101;21324;-79
2021/06/24 04:36:43;;;;;;;25.08;20.95;;;;;;;18.75;77.34;100598.84;127984;1101;22424;-79
2021/06/24 04:39:22;;;;;;;19.28;17.35;;;;;;;18.77;77.56;100604.81;127826;1101;22567;-78
2021/06/24 04:42:16;;;;;;;20.83;18.93;;;;;;;18.77;77.19;100596.78;127913;1101;22395;-80
2021/06/24 04:45:33;;;;;;;;;;;;;;;;;;;;;
2021/06/24 04:48:21;;;;;;;22.63;19.38;;;;;;;18.64;77.71;100555.88;128279;1101;22855;-79
2021/06/24 04:51:30;;;;;;;21.80;19.70;;;;;;;18.52;77.82;100526.30;128321;1101;22458;-81
2021/06/24 04:54:39;;;;;;;22.55;20.20;;;;;;;18.43;78.10;100498.20;127976;1101;22407;-80
2021/06/24 04:57:54;;;;;;;31.00;20.10;;;;;;;18.35;78.47;100485.88;127589;1101;22611;-80
2021/06/24 05:01:12;;;;;;;23.35;21.08;;;;;;;18.33;78.58;100480.76;127535;1101;22488;-80
2021/06/24 05:04:09;;;;;;;25.40;22.60;;;;;;;18.33;78.72;100479.94;127594;1101;23202;-81
2021/06/24 05:07:09;;;;;;;23.23;21.07;;;;;;;18.31;79.14;100466.77;127892;1101;22430;-79
2021/06/24 05:09:47;;;;;;;23.55;21.45;;;;;;;18.32;78.93;100465.73;127436;1103;23341;-80
2021/06/24 05:12:27;;;;;;;25.48;21.28;;;;;;;18.35;79.22;100465.30;127662;1101;22403;-80
2021/06/24 05:15:23;;;;;;;26.23;22.88;;;;;;;18.39;79.51;100467.55;127849;1099;22433;-79
2021/06/24 05:17:58;;;;;;;23.90;21.50;;;;;;;18.41;79.14;100454.78;127944;1101;22404;-78
2021/06/24 05:20:45;;;;;;;24.43;22.08;;;;;;;18.42;79.51;100493.86;127697;1101;22389;-78
2021/06/24 05:23:27;;;;;;;27.00;24.43;;;;;;;18.45;79.78;100502.27;128018;1101;25117;-79
2021/06/24 05:26:12;;;;;;;25.80;23.30;;;;;;;18.49;79.89;100510.68;127940;1101;24531;-80
2021/06/24 05:29:00;;;;;;;29.30;26.53;;;;;;;18.51;79.81;100512.11;128221;1098;22505;-79
2021/06/24 05:32:06;;;;;;;26.48;23.98;;;;;;;18.50;79.45;100445.47;128248;1098;22458;-81
2021/06/24 05:34:55;;;;;;;28.70;25.98;;;;;;;18.48;80.08;100367.28;127698;1101;23246;-78
2021/06/24 05:37:30;;;;;;;30.10;22.75;;;;;;;18.46;79.51;100337.25;127965;1101;22401;-79
2021/06/24 05:40:00;;;;;;;25.08;22.60;;;;;;;18.41;79.75;100248.84;127618;1103;22574;-79
2021/06/24 05:42:46;;;;;;;24.68;22.45;;;;;;;18.33;79.92;100156.36;127552;1105;22398;-78
2021/06/24 05:45:17;;;;;;;26.67;20.80;;;;;;;18.24;80.02;100171.88;127640;1101;22414;-78
2021/06/24 05:47:48;;;;;;;20.65;18.55;;;;;;;18.18;80.35;100214.72;127787;1100;23222;-78
2021/06/24 05:50:19;;;;;;;25.63;18.28;;;;;;;18.15;80.80;100256.08;127660;1101;22480;-78
2021/06/24 05:52:50;;;;;;;18.58;16.68;;;;;;;18.17;80.90;100318.17;127760;1098;24744;-78
2021/06/24 05:56:09;;;;;;;24.18;17.95;;;;;;;18.19;81.13;100376.77;127676;1101;22508;-78
2021/06/24 05:58:25;;;;;;;19.35;16.78;;;;;;;18.24;81.22;100435.77;127764;1101;22393;-78
2021/06/24 06:00:58;;;;;;;18.03;16.40;;;;;;;18.26;81.42;100455.07;127562;1101;22419;-77
2021/06/24 06:03:28;;;;;;;19.90;17.80;;;;;;;18.27;81.32;100406.74;127592;1101;22471;-77
2021/06/24 06:05:58;;;;;;;19.55;17.43;;;;;;;18.32;81.43;100449.69;127553;1100;22410;-77
2021/06/24 06:08:32;;;;;;;20.40;18.33;;;;;;;18.37;81.59;100443.70;127588;1101;22395;-77
2021/06/24 06:11:05;;;;;;;22.65;18.28;;;;;;;18.45;81.80;100419.34;127163;1105;22493;-78
2021/06/24 06:13:36;;;;;;;21.97;18.87;;;;;;;18.50;81.52;100424.06;127135;1104;22493;-78
2021/06/24 06:16:09;;;;;;;20.93;18.83;;;;;;;18.56;81.91;100436.58;127351;1105;22948;-80
2021/06/24 06:18:42;;;;;;;20.10;17.43;;;;;;;18.61;82.00;100466.16;127416;1101;22368;-79
2021/06/24 06:21:13;;;;;;;24.75;18.75;;;;;;;18.64;81.69;100460.38;127909;1101;22453;-78
2021/06/24 06:23:52;;;;;;;;;;;;;;;18.64;81.73;100470.26;127625;1101;22401;-79
2021/06/24 06:26:25;;;;;;;25.18;19.03;;;;;;;18.64;81.90;100484.45;127577;1101;21284;-79
2021/06/24 06:29:04;;;;;;;24.30;17.98;;;;;;;18.74;82.22;100495.52;127578;1101;22404;-78
2021/06/24 06:31:37;;;;;;;21.35;18.10;;;;;;;18.83;82.49;100474.66;127853;1101;25101;-79
2021/06/24 06:34:21;;;;;;;20.93;18.75;;;;;;;18.90;81.95;100471.94;127191;1104;22435;-78
2021/06/24 06:36:51;;;;;;;19.60;17.55;;;;;;;18.97;81.80;100480.72;127401;1101;24564;-78
2021/06/24 06:39:21;;;;;;;19.93;17.83;;;;;;;19.03;81.95;100487.88;127536;1101;22402;-79
2021/06/24 06:41:51;;;;;;;19.50;17.70;;;;;;;19.10;81.81;100480.59;127227;1101;22411;-79
2021/06/24 06:44:21;;;;;;;24.03;20.40;;;;;;;19.18;82.03;100482.16;127609;1101;22889;-79
2021/06/24 06:46:51;;;;;;;21.40;17.80;;;;;;;19.23;82.09;100487.69;127590;1101;22394;-78
2021/06/24 06:49:22;;;;;;;20.30;18.05;;;;;;;19.28;81.89;100502.03;127587;1104;22509;-78
2021/06/24 06:51:52;;;;;;;20.93;18.70;;;;;;;19.36;82.16;100511.66;127092;1101;22463;-78
2021/06/24 06:54:22;;;;;;;20.45;18.13;;;;;;;19.43;82.18;100515.09;127585;1101;22404;-78
2021/06/24 06:56:52;;;;;;;28.48;21.28;;;;;;;19.51;81.96;100513.97;127570;1101;22414;-78
2021/06/24 06:59:25;;;;;;;21.27;19.27;;;;;;;19.58;82.18;100512.03;127586;1101;22408;-77
2021/06/24 07:02:11;;;;;;;20.78;18.65;;;;;;;19.66;81.87;100503.74;127653;1101;22562;-78
2021/06/24 07:04:41;;;;;;;21.83;19.28;;;;;;;19.75;82.23;100509.59;127479;1101;22403;-79
2021/06/24 07:07:11;;;;;;;27.20;20.30;;;;;;;19.82;82.23;100506.84;127709;1098;22390;-77
2021/06/24 07:09:43;;;;;;;26.03;19.73;;;;;;;19.91;82.40;100508.18;127951;1101;23097;-76
2021/06/24 07:12:13;;;;;;;20.83;18.65;;;;;;;20.00;82.06;100514.06;127976;1101;22443;-77
2021/06/24 07:14:44;;;;;;;22.98;18.10;;;;;;;20.07;82.09;100517.48;127979;1101;25271;-77
2021/06/24 07:17:17;;;;;;;22.60;20.35;;;;;;;20.17;82.62;100518.56;127999;1101;22382;-76
2021/06/24 07:19:49;;;;;;;23.23;20.60;;;;;;;20.27;82.24;100519.89;127665;1101;22515;-77
2021/06/24 07:22:22;;;;;;;21.58;19.65;;;;;;;20.35;81.97;100522.24;127993;1101;22379;-78
2021/06/24 07:24:52;;;;;;;21.75;19.43;;;;;;;20.43;81.85;100524.63;127987;1101;24608;-76
2021/06/24 07:27:24;;;;;;;21.38;19.30;;;;;;;20.47;80.99;100523.11;128037;1098;24511;-77
2021/06/24 07:29:54;;;;;;;21.10;19.03;;;;;;;20.56;81.34;100531.66;128017;1098;22496;-79
2021/06/24 07:32:29;;;;;;;21.10;19.10;;;;;;;20.65;81.04;100541.84;128008;1098;22401;-78
2021/06/24 07:35:10;;;;;;;22.90;20.43;;;;;;;20.75;81.43;100551.21;127690;1098;22392;-78
2021/06/24 07:37:43;;;;;;;21.30;18.43;;;;;;;20.83;81.48;100538.28;128028;1098;23494;-79
2021/06/24 07:40:13;;;;;;;19.85;15.95;;;;;;;20.94;81.27;100528.61;128000;1098;22368;-77
2021/06/24 07:42:47;;;;;;;18.20;15.58;;;;;;;21.03;80.46;100556.77;127998;1098;22395;-78
2021/06/24 07:45:17;;;;;;;25.85;16.15;;;;;;;21.06;80.16;100547.41;128050;1098;22535;-79
2021/06/24 07:47:47;;;;;;;17.60;15.28;;;;;;;21.09;79.33;100542.41;127981;1098;22335;-79
2021/06/24 07:50:17;;;;;;;19.20;15.45;;;;;;;21.12;79.04;100544.61;127691;1101;22395;-78
2021/06/24 07:52:48;;;;;;;;;;;;;;;21.19;79.46;100552.55;127671;1101;22529;-78
2021/06/24 07:55:20;;;;;;;20.25;16.43;;;;;;;21.21;78.94;100557.71;127878;1098;23102;-78
2021/06/24 07:57:57;;;;;;;18.80;17.07;;;;;;;21.29;79.14;100551.97;127596;1101;22414;-77
2021/06/24 08:00:35;;;;;;;18.85;16.80;;;;;;;21.41;78.50;100547.45;127629;1101;24249;-76
2021/06/24 08:03:30;;;;;;;18.53;16.58;;;;;;;21.50;77.85;100537.99;127587;1101;22423;-77
2021/06/24 08:06:09;;;;;;;22.18;17.98;;;;;;;21.59;77.46;100547.34;127622;1101;22399;-79
2021/06/24 08:08:42;;;;;;;21.30;17.88;;;;;;;21.74;77.17;100548.71;127583;1101;22421;-77
2021/06/24 08:11:17;;;;;;;19.33;16.28;;;;;;;22.08;77.79;100549.67;127127;1105;22476;-77
2021/06/24 08:13:50;;;;;;;19.83;16.35;;;;;;;22.71;77.90;100554.10;127467;1105;22436;-77
2021/06/24 08:16:21;;;;;;;19.45;17.45;;;;;;;23.35;75.96;100544.89;127635;1101;22516;-77
2021/06/24 08:18:51;;;;;;;20.73;18.80;;;;;;;23.85;73.67;100535.88;127576;1101;22427;-77
2021/06/24 08:21:35;;;;;;;;;;;;;;;;;;;;;
2021/06/24 08:24:18;;;;;;;16.55;14.88;;;;;;;24.85;70.22;100547.20;127571;1104;24575;-78
2021/06/24 08:26:55;;;;;;;20.40;15.98;;;;;;;25.47;68.64;100532.25;127390;1105;22421;-78
2021/06/24 08:29:29;;;;;;;18.43;16.48;;;;;;;26.05;66.39;100535.77;127259;1102;22396;-78
2021/06/24 08:32:10;;;;;;;19.77;17.07;;;;;;;26.44;64.04;100528.01;127677;1101;25016;-80
2021/06/24 08:34:49;;;;;;;21.73;16.48;;;;;;;26.77;62.27;100515.06;127581;1101;22546;-79
2021/06/24 08:37:51;;;;;;;33.08;25.35;;;;;;;26.83;60.45;100513.17;127276;1105;24540;-79
2021/06/24 08:40:41;;;;;;;21.80;19.43;;;;;;;27.08;60.64;100517.73;127047;1105;22390;-79
2021/06/24 08:43:19;;;;;;;17.28;15.48;;;;;;;27.39;59.95;100515.78;127143;1105;22403;-74
2021/06/24 08:45:50;;;;;;;19.70;17.65;;;;;;;27.51;57.83;100523.64;127139;1105;22403;-76
2021/06/24 08:48:27;;;;;;;19.98;17.90;;;;;;;27.35;56.93;100520.95;127116;1104;22766;-77
2021/06/24 08:50:57;;;;;;;20.75;17.53;;;;;;;27.19;57.12;100536.47;127085;1105;25158;-76
2021/06/24 08:53:31;;;;;;;38.80;21.18;;;;;;;26.99;57.65;100528.30;127092;1105;24388;-79
2021/06/24 08:56:10;;;;;;;21.23;19.10;;;;;;;26.73;57.07;100530.23;126965;1105;22390;-79
2021/06/24 08:58:40;;;;;;;19.53;17.83;;;;;;;26.33;57.43;100525.56;127213;1101;22615;-78
2021/06/24 09:01:19;;;;;;;26.35;20.55;;;;;;;26.11;58.18;100534.70;127480;1101;22404;-80
2021/06/24 09:03:59;;;;;;;19.50;17.48;;;;;;;25.98;58.82;100535.20;127572;1102;25156;-78
2021/06/24 09:06:36;;;;;;;20.10;17.23;;;;;;;25.84;58.78;100532.19;127559;1105;22498;-77
2021/06/24 09:09:07;;;;;;;20.63;18.50;;;;;;;25.64;58.42;100529.36;127022;1105;23294;-77
2021/06/24 09:11:48;;;;;;;19.68;17.40;;;;;;;25.54;59.27;100525.53;127152;1105;25075;-78
2021/06/24 09:14:22;;;;;;;21.93;17.75;;;;;;;25.75;59.73;100523.72;127791;1101;22427;-78
2021/06/24 09:17:01;;;;;;;21.05;18.95;;;;;;;25.94;59.11;100520.59;127977;1101;22389;-77
2021/06/24 09:19:35;;;;;;;20.00;17.78;;;;;;;25.87;57.91;100530.84;127625;1101;24628;-79
2021/06/24 09:22:13;;;;;;;22.45;18.08;;;;;;;25.76;57.65;100528.08;127268;1103;22396;-79
2021/06/24 09:24:48;;;;;;;20.00;17.75;;;;;;;25.68;58.21;100525.86;127135;1104;24234;-77
2021/06/24 09:27:31;;;;;;;19.73;17.60;;;;;;;25.62;58.12;100526.91;127097;1105;22519;-79
2021/06/24 09:30:06;;;;;;;17.93;16.20;;;;;;;25.69;58.52;100524.80;127153;1104;22406;-76
2021/06/24 09:32:43;;;;;;;18.60;16.85;;;;;;;25.87;58.12;100522.73;127130;1104;22609;-85
2021/06/24 09:35:30;;;;;;;18.20;16.50;;;;;;;25.93;57.10;100527.09;127945;1101;24196;-77
2021/06/24 09:38:14;;;;;;;19.70;16.50;;;;;;;25.74;56.65;100519.39;128024;1101;24977;-80
2021/06/24 09:40:57;;;;;;;18.80;16.53;;;;;;;25.62;57.75;100517.98;128198;1098;22376;-80
2021/06/24 09:43:41;;;;;;;18.97;16.03;;;;;;;25.99;57.88;100526.84;128282;1099;22397;-83
2021/06/24 09:49:00;;;;;;;17.45;15.60;;;;;;;26.44;55.67;100532.62;128533;1098;22847;-81
2021/06/24 09:51:37;;;;;;;19.33;17.35;;;;;;;26.40;55.29;100535.05;128146;1096;22389;-79
2021/06/24 09:54:17;;;;;;;17.63;15.85;;;;;;;26.53;55.30;100531.05;128142;1097;22366;-79
2021/06/24 09:56:55;;;;;;;18.55;16.83;;;;;;;26.55;54.53;100526.15;128133;1098;22407;-79
2021/06/24 09:59:40;;;;;;;18.83;16.50;;;;;;;26.47;54.07;100532.08;128263;1101;22382;-80
2021/06/24 10:02:23;;;;;;;17.73;16.03;;;;;;;26.36;54.76;100527.71;128092;1101;22413;-79
2021/06/24 10:05:10;;;;;;;18.07;16.27;;;;;;;26.45;55.39;100528.81;128022;1101;22394;-78
2021/06/24 10:07:44;;;;;;;19.28;17.33;;;;;;;26.58;55.13;100522.91;127794;1101;22401;-82
2021/06/24 10:10:46;;;;;;;18.93;16.35;;;;;;;26.70;55.43;100512.62;127821;1101;24229;-80
2021/06/24 10:13:17;;;;;;;18.00;16.03;;;;;;;26.99;54.52;100517.47;127594;1101;22444;-79
2021/06/24 10:15:55;;;;;;;17.13;15.45;;;;;;;27.37;53.88;100515.27;127682;1101;22427;-84
2021/06/24 10:18:31;;;;;;;17.00;15.37;;;;;;;27.52;52.21;100512.49;127384;1105;22439;-78
2021/06/24 10:21:04;;;;;;;18.70;15.93;;;;;;;27.42;51.57;100512.53;127185;1104;22887;-76
2021/06/24 10:23:55;;;;;;;17.70;16.03;;;;;;;27.30;51.71;100520.17;127260;1101;25194;-77
2021/06/24 10:26:30;;;;;;;16.65;14.95;;;;;;;27.17;52.03;100530.50;127289;1105;22455;-77
2021/06/24 10:29:30;;;;;;;17.75;16.10;;;;;;;26.97;52.68;100533.20;127248;1104;22436;-80
2021/06/24 10:32:42;;;;;;;16.35;14.95;;;;;;;26.77;52.67;100523.19;127287;1105;22453;-78
2021/06/24 10:35:36;;;;;;;17.18;15.55;;;;;;;26.67;53.50;100521.28;127372;1105;24572;-78
2021/06/24 10:38:47;;;;;;;18.15;15.03;;;;;;;26.77;53.16;100523.19;127876;1100;22389;-78
2021/06/24 10:41:27;;;;;;;17.23;15.38;;;;;;;26.80;53.25;100532.68;128237;1100;22382;-79
2021/06/24 10:44:53;;;;;;;13.80;12.35;;;;;;;26.78;52.57;100530.22;128344;1098;22516;-78
2021/06/24 10:47:54;;;;;;;14.80;13.30;;;;;;;26.67;52.36;100526.70;128070;1096;23227;-79
2021/06/24 10:50:42;;;;;;;14.20;12.95;;;;;;;26.75;52.88;100523.44;127767;1101;22398;-78
2021/06/24 10:53:37;;;;;;;;;;;;;;;;;;;;;
2021/06/24 10:56:38;;;;;;;14.95;13.45;;;;;;;26.58;52.27;100520.19;127625;1104;22405;-78
2021/06/24 10:59:29;;;;;;;12.93;11.67;;;;;;;26.47;52.70;100524.80;127593;1104;22420;-75
2021/06/24 11:02:09;;;;;;;13.75;10.93;;;;;;;26.34;52.65;100529.89;127105;1104;22458;-75
2021/06/24 11:05:17;;;;;;;10.28;9.38;;;;;;;26.29;52.83;100530.68;126736;1108;22439;-75
2021/06/24 11:07:55;;;;;;;12.50;9.20;;;;;;;26.31;52.29;100533.13;126962;1108;24266;-74
2021/06/24 11:10:31;;;;;;;11.28;9.60;;;;;;;26.34;52.79;100522.58;126943;1108;22534;-75
2021/06/24 11:13:06;;;;;;;14.17;10.97;;;;;;;26.40;52.73;100528.83;127021;1108;22508;-75
2021/06/24 11:15:51;;;;;;;12.95;10.45;;;;;;;26.38;52.80;100523.66;127034;1108;22803;-75
2021/06/24 11:19:04;;;;;;;12.37;9.93;;;;;;;26.36;52.91;100515.01;127076;1106;22422;-74
2021/06/24 11:21:34;;;;;;;11.73;10.55;;;;;;;26.41;52.93;100519.61;126621;1111;22513;-74
2021/06/24 11:24:06;;;;;;;11.78;10.28;;;;;;;26.46;52.73;100516.92;126681;1108;22494;-74
2021/06/24 11:26:40;;;;;;;11.38;9.88;;;;;;;26.48;53.06;100520.99;126845;1107;24582;-75
2021/06/24 11:32:12;;;;;;;12.73;9.70;;;;;;;26.51;52.67;100514.23;127449;1104;22399;-74
2021/06/24 11:34:57;;;;;;;12.28;10.35;;;;;;;26.51;53.25;100512.33;127555;1104;23996;-75
2021/06/24 11:37:29;;;;;;;;;;;;;;;26.47;52.84;100515.83;127606;1105;22415;-74
2021/06/24 11:40:07;;;;;;;11.03;9.73;;;;;;;26.44;53.17;100516.36;127605;1105;21292;-75
2021/06/24 11:42:43;;;;;;;8.95;8.10;;;;;;;26.48;52.53;100515.58;127581;1103;22539;-74
2021/06/24 11:45:18;;;;;;;12.03;8.30;;;;;;;26.48;52.81;100522.89;127655;1104;23353;-74
2021/06/24 11:47:56;;;;;;;11.33;8.40;;;;;;;26.49;52.71;100516.38;127334;1105;22446;-74
2021/06/24 12:04:30;;;;;;;12.45;8.70;;;;;;;26.58;53.09;100509.36;127974;1101;22401;-75
2021/06/24 12:07:10;;;;;;;13.20;10.30;;;;;;;26.66;53.10;100508.02;127909;1100;22517;-75
2021/06/24 12:09:48;;;;;;;12.93;8.78;;;;;;;26.79;52.64;100503.93;128055;1101;22570;-74
2021/06/24 12:12:26;;;;;;;15.10;10.03;;;;;;;26.86;52.58;100510.72;128043;1099;24533;-75
2021/06/24 12:15:02;;;;;;;12.18;9.68;;;;;;;26.87;51.75;100522.38;128015;1098;22402;-75
2021/06/24 12:17:38;;;;;;;14.08;10.63;;;;;;;26.77;51.30;100512.34;127977;1100;22406;-74
2021/06/24 12:20:12;;;;;;;38.05;18.13;;;;;;;26.65;51.69;100511.80;128006;1099;24300;-75
2021/06/24 12:23:03;;;;;;;12.65;10.08;;;;;;;26.57;51.78;100512.34;128023;1100;24524;-74
2021/06/24 12:25:35;;;;;;;18.93;11.30;;;;;;;26.51;52.14;100511.52;128160;1098;22405;-76
2021/06/24 12:28:09;;;;;;;9.55;8.28;;;;;;;26.55;52.15;100509.08;128115;1098;22405;-75
2021/06/24 12:30:43;;;;;;;9.23;8.35;;;;;;;26.60;52.00;100514.52;128077;1098;22364;-75
2021/06/24 12:33:28;;;;;;;11.00;8.15;;;;;;;26.65;52.19;100509.09;128213;1098;22381;-74
2021/06/24 12:36:03;;;;;;;10.70;8.68;;;;;;;26.63;51.94;100512.08;128150;1098;22374;-74
2021/06/24 12:38:34;;;;;;;14.40;9.25;;;;;;;26.65;52.22;100507.19;127981;1098;22417;-74